createdAt,value
2019-02-26T00:00:45.003Z,4.30
2019-02-26T00:04:49.135Z,4.20
2019-02-26T00:08:56.057Z,4.20
2019-02-26T00:13:02.507Z,4.10
2019-02-26T00:17:10.550Z,4.10
2019-02-26T00:21:13.280Z,4.00
2019-02-26T00:25:19.882Z,4.00
2019-02-26T00:29:25.258Z,3.90
2019-02-26T00:33:29.934Z,3.90
2019-02-26T00:37:34.461Z,3.80
2019-02-26T00:41:40.284Z,3.80
2019-02-26T00:45:44.811Z,3.70
2019-02-26T00:49:51.011Z,3.70
2019-02-26T00:53:57.337Z,3.60
2019-02-26T00:58:03.266Z,3.60
2019-02-26T01:02:07.446Z,3.60
2019-02-26T01:06:11.741Z,3.50
2019-02-26T01:10:18.759Z,3.40
2019-02-26T01:14:24.555Z,3.50
2019-02-26T01:18:29.010Z,3.40
2019-02-26T01:22:35.255Z,3.40
2019-02-26T01:26:42.525Z,3.30
2019-02-26T01:30:45.574Z,3.30
2019-02-26T01:34:49.860Z,3.20
2019-02-26T01:38:54.142Z,3.10
2019-02-26T01:43:02.586Z,3.00
2019-02-26T01:47:04.742Z,3.00
2019-02-26T01:51:10.608Z,3.00
2019-02-26T01:55:16.149Z,2.90
2019-02-26T01:59:20.920Z,2.90
2019-02-26T02:03:26.124Z,2.90
2019-02-26T02:07:31.358Z,2.90
2019-02-26T02:11:36.229Z,2.90
2019-02-26T02:15:42.281Z,2.90
2019-02-26T02:19:47.602Z,2.90
2019-02-26T02:23:52.941Z,2.90
2019-02-26T02:27:59.356Z,2.90
2019-02-26T02:32:05.069Z,2.90
2019-02-26T02:36:11.525Z,2.90
2019-02-26T02:40:15.356Z,2.80
2019-02-26T02:44:20.597Z,2.80
2019-02-26T02:48:25.802Z,2.80
2019-02-26T02:52:32.295Z,2.70
2019-02-26T02:56:39.110Z,2.70
2019-02-26T03:00:42.138Z,2.60
2019-02-26T03:04:46.467Z,2.50
2019-02-26T03:08:51.516Z,2.50
2019-02-26T03:12:57.662Z,2.40
2019-02-26T03:17:02.637Z,2.40
2019-02-26T03:21:07.012Z,2.30
2019-02-26T03:25:14.288Z,2.30
2019-02-26T03:29:18.517Z,2.30
2019-02-26T03:33:22.986Z,2.30
2019-02-26T03:37:28.864Z,2.20
2019-02-26T03:41:33.322Z,2.20
2019-02-26T03:45:37.688Z,2.20
2019-02-26T03:49:42.377Z,2.10
2019-02-26T03:53:46.773Z,2.10
2019-02-26T03:57:54.375Z,2.00
2019-02-26T04:01:57.095Z,2.00
2019-02-26T04:06:03.124Z,1.90
2019-02-26T04:10:07.714Z,1.90
2019-02-26T04:14:12.608Z,1.90
2019-02-26T04:18:17.891Z,1.80
2019-02-26T04:22:39.123Z,1.80
2019-02-26T04:27:18.685Z,1.80
2019-02-26T04:31:35.915Z,1.70
2019-02-26T04:36:02.662Z,1.60
2019-02-26T04:40:43.937Z,1.60
2019-02-26T04:45:20.268Z,1.50
2019-02-26T04:49:27.050Z,1.50
2019-02-26T04:53:31.303Z,1.40
2019-02-26T04:57:39.464Z,1.40
2019-02-26T05:01:44.659Z,1.40
2019-02-26T05:05:51.264Z,1.40
2019-02-26T05:09:56.866Z,1.40
2019-02-26T05:14:00.823Z,1.40
2019-02-26T05:18:05.173Z,1.40
2019-02-26T05:22:09.513Z,1.40
2019-02-26T05:26:15.133Z,1.40
2019-02-26T05:30:22.324Z,1.40
2019-02-26T05:34:26.029Z,1.40
2019-02-26T05:38:32.471Z,1.40
2019-02-26T05:42:36.450Z,1.50
2019-02-26T05:46:47.512Z,1.50
2019-02-26T05:50:52.792Z,1.50
2019-02-26T05:54:57.062Z,1.50
2019-02-26T05:59:04.284Z,1.50
2019-02-26T06:03:09.699Z,1.50
2019-02-26T06:07:13.527Z,1.40
2019-02-26T06:11:18.011Z,1.40
2019-02-26T06:15:23.109Z,1.40
2019-02-26T06:19:44.947Z,1.40
2019-02-26T06:23:56.115Z,1.40
2019-02-26T06:28:04.807Z,1.40
2019-02-26T06:32:11.972Z,1.40
2019-02-26T06:36:17.940Z,1.40
2019-02-26T06:40:22.446Z,1.40
2019-02-26T06:44:26.993Z,1.40
2019-02-26T06:48:32.341Z,1.40
2019-02-26T06:52:56.617Z,1.40
2019-02-26T06:57:01.114Z,1.40
2019-02-26T07:01:07.175Z,1.40
2019-02-26T07:05:13.022Z,1.40
2019-02-26T07:09:18.212Z,1.50
2019-02-26T07:13:43.873Z,1.90
2019-02-26T07:18:10.703Z,2.30
2019-02-26T07:22:15.919Z,3.00
2019-02-26T07:26:20.816Z,3.70
2019-02-26T07:30:26.071Z,4.50
2019-02-26T07:34:30.626Z,5.60
2019-02-26T07:38:41.109Z,5.90
2019-02-26T07:42:41.932Z,6.20
2019-02-26T07:46:47.324Z,6.20
2019-02-26T07:50:51.752Z,6.00
2019-02-26T07:54:56.202Z,5.80
2019-02-26T07:59:03.817Z,5.70
2019-02-26T08:03:06.736Z,5.50
2019-02-26T08:07:11.116Z,5.90
2019-02-26T08:11:15.554Z,6.50
2019-02-26T08:15:20.077Z,7.30
2019-02-26T08:19:29.528Z,8.10
2019-02-26T08:23:30.562Z,9.00
2019-02-26T08:27:35.657Z,9.80
2019-02-26T08:31:44.618Z,10.60
2019-02-26T08:35:47.375Z,11.60
2019-02-26T08:39:51.870Z,11.90
2019-02-26T08:43:56.918Z,12.50
2019-02-26T08:48:02.486Z,13.10
2019-02-26T08:52:06.829Z,13.70
2019-02-26T08:56:11.347Z,14.30
2019-02-26T09:00:17.357Z,14.80
2019-02-26T09:04:23.751Z,15.30
2019-02-26T09:08:30.153Z,15.90
2019-02-26T09:12:33.945Z,16.30
2019-02-26T09:16:38.481Z,16.70
2019-02-26T09:20:42.747Z,17.10
2019-02-26T09:24:49.290Z,17.60
2019-02-26T09:28:55.422Z,18.20
2019-02-26T09:33:00.940Z,18.70
2019-02-26T09:37:07.245Z,19.20
2019-02-26T09:41:13.674Z,19.70
2019-02-26T09:45:20.402Z,20.10
2019-02-26T09:49:26.213Z,20.40
2019-02-26T09:53:30.631Z,20.70
2019-02-26T09:57:35.065Z,21.00
2019-02-26T10:01:40.749Z,21.20
2019-02-26T10:05:47.678Z,21.50
2019-02-26T10:09:51.718Z,21.60
2019-02-26T10:13:56.230Z,22.00
2019-02-26T10:18:01.923Z,22.20
2019-02-26T10:22:09.808Z,22.50
2019-02-26T10:26:12.757Z,22.80
2019-02-26T10:30:17.489Z,23.20
2019-02-26T10:34:25.614Z,23.40
2019-02-26T10:38:31.264Z,23.50
2019-02-26T10:42:39.748Z,23.00
2019-02-26T10:46:42.557Z,22.10
2019-02-26T10:50:49.209Z,21.10
2019-02-26T10:54:52.464Z,20.30
2019-02-26T10:58:58.770Z,19.80
2019-02-26T11:03:02.955Z,20.00
2019-02-26T11:07:11.006Z,20.70
2019-02-26T11:11:16.017Z,21.60
2019-02-26T11:15:21.521Z,22.30
2019-02-26T11:19:27.347Z,22.90
2019-02-26T11:23:33.958Z,23.50
2019-02-26T11:27:40.311Z,23.90
2019-02-26T11:31:44.692Z,24.30
2019-02-26T11:35:51.476Z,24.50
2019-02-26T11:39:57.588Z,25.00
2019-02-26T11:44:01.897Z,25.10
2019-02-26T11:48:08.687Z,25.50
2019-02-26T11:52:12.412Z,25.60
2019-02-26T11:56:17.687Z,25.80
2019-02-26T12:00:33.902Z,26.00
2019-02-26T12:04:36.062Z,26.10
2019-02-26T12:08:42.429Z,26.20
2019-02-26T12:12:48.505Z,26.50
2019-02-26T12:16:53.007Z,26.70
2019-02-26T12:20:57.354Z,26.90
2019-02-26T12:25:04.853Z,27.10
2019-02-26T12:29:07.900Z,27.30
2019-02-26T12:33:14.689Z,27.50
2019-02-26T12:37:18.580Z,27.70
2019-02-26T12:41:23.011Z,27.80
2019-02-26T12:45:28.447Z,27.90
2019-02-26T12:49:36.555Z,28.10
2019-02-26T12:57:52.892Z,28.40
2019-02-26T13:01:57.472Z,28.50
2019-02-26T13:06:05.168Z,28.40
2019-02-26T13:10:10.194Z,27.80
2019-02-26T13:14:14.553Z,26.70
2019-02-26T13:18:19.004Z,25.40
2019-02-26T13:22:23.371Z,24.40
2019-02-26T13:26:27.770Z,23.60
2019-02-26T13:30:32.116Z,22.80
2019-02-26T13:34:36.556Z,22.20
2019-02-26T13:38:45.047Z,21.60
2019-02-26T13:42:53.597Z,21.00
2019-02-26T13:46:53.073Z,20.60
2019-02-26T13:50:57.433Z,20.30
2019-02-26T13:55:01.890Z,20.00
2019-02-26T13:59:06.290Z,19.80
2019-02-26T14:03:10.710Z,19.60
2019-02-26T14:07:15.109Z,19.30
2019-02-26T14:11:19.530Z,19.20
2019-02-26T14:15:24.405Z,19.00
2019-02-26T14:19:29.046Z,18.80
2019-02-26T14:23:35.054Z,18.60
2019-02-26T14:27:39.501Z,18.40
2019-02-26T14:31:44.054Z,18.30
2019-02-26T14:35:48.471Z,18.20
2019-02-26T14:39:52.830Z,18.00
2019-02-26T14:43:57.314Z,17.90
2019-02-26T14:48:05.872Z,18.00
2019-02-26T14:52:10.182Z,18.20
2019-02-26T14:56:14.613Z,18.40
2019-02-26T15:00:23.988Z,18.90
2019-02-26T15:04:31.516Z,19.70
2019-02-26T15:08:35.940Z,20.50
2019-02-26T15:12:40.316Z,21.30
2019-02-26T15:16:45.268Z,21.80
2019-02-26T15:20:49.874Z,22.30
2019-02-26T15:24:54.353Z,22.70
2019-02-26T15:28:58.774Z,23.00
2019-02-26T15:33:10.870Z,23.30
2019-02-26T15:37:09.285Z,23.50
2019-02-26T15:41:13.910Z,23.70
2019-02-26T15:45:20.297Z,23.90
2019-02-26T15:49:25.033Z,23.90
2019-02-26T15:53:29.582Z,24.00
2019-02-26T15:57:33.941Z,23.90
2019-02-26T16:01:38.382Z,23.90
2019-02-26T16:05:42.813Z,23.90
2019-02-26T16:09:47.268Z,23.80
2019-02-26T16:13:51.681Z,23.60
2019-02-26T16:17:58.947Z,23.40
2019-02-26T16:22:02.327Z,23.20
2019-02-26T16:26:08.094Z,23.00
2019-02-26T16:30:16.305Z,22.70
2019-02-26T16:34:23.194Z,22.40
2019-02-26T16:38:27.604Z,21.90
2019-02-26T16:42:32.167Z,21.40
2019-02-26T16:46:36.654Z,20.80
2019-02-26T16:50:41.032Z,20.20
2019-02-26T16:54:45.590Z,19.70
2019-02-26T16:58:50.089Z,19.20
2019-02-26T17:02:54.579Z,18.60
2019-02-26T17:06:59.042Z,18.20
2019-02-26T17:11:03.452Z,17.70
2019-02-26T17:15:10.183Z,17.10
2019-02-26T17:19:15.468Z,17.00
2019-02-26T17:23:20.575Z,16.70
2019-02-26T17:27:24.945Z,16.00
2019-02-26T17:31:30.761Z,15.60
2019-02-26T17:35:35.589Z,15.60
2019-02-26T17:39:39.976Z,15.30
2019-02-26T17:43:44.247Z,15.00
2019-02-26T17:47:48.598Z,14.70
2019-02-26T17:51:52.924Z,14.40
2019-02-26T17:55:57.334Z,14.10
2019-02-26T18:00:01.726Z,13.90
2019-02-26T18:04:06.128Z,13.60
2019-02-26T18:08:10.538Z,13.40
2019-02-26T18:12:15.053Z,13.00
2019-02-26T18:16:19.482Z,12.90
2019-02-26T18:20:28.074Z,12.70
2019-02-26T18:24:30.074Z,12.50
2019-02-26T18:28:34.481Z,12.30
2019-02-26T18:32:38.915Z,12.00
2019-02-26T18:36:45.102Z,11.80
2019-02-26T18:40:49.331Z,11.60
2019-02-26T18:44:54.175Z,11.40
2019-02-26T18:48:58.962Z,11.20
2019-02-26T18:53:03.386Z,11.00
2019-02-26T18:57:11.281Z,10.80
2019-02-26T19:01:13.960Z,10.60
2019-02-26T19:05:20.413Z,10.30
2019-02-26T19:09:24.236Z,10.30
2019-02-26T19:13:28.684Z,10.10
2019-02-26T19:17:36.803Z,10.00
2019-02-26T19:21:41.335Z,9.80
2019-02-26T19:25:45.883Z,9.60
2019-02-26T19:29:50.433Z,9.50
2019-02-26T19:33:55.432Z,9.40
2019-02-26T19:38:00.342Z,9.30
2019-02-26T19:42:04.967Z,9.20
2019-02-26T19:46:09.429Z,9.00
2019-02-26T19:50:14.788Z,8.90
2019-02-26T19:54:19.414Z,8.70
2019-02-26T19:58:27.327Z,8.60
2019-02-26T20:02:32.259Z,8.40
2019-02-26T20:06:36.683Z,8.30
2019-02-26T20:10:47.848Z,8.20
2019-02-26T20:14:49.554Z,8.10
2019-02-26T20:18:54.078Z,8.00
2019-02-26T20:22:58.974Z,7.80
2019-02-26T20:27:03.631Z,7.70
2019-02-26T20:31:13.888Z,7.60
2019-02-26T20:35:16.017Z,7.60
2019-02-26T20:39:21.830Z,7.50
2019-02-26T20:43:26.203Z,7.40
2019-02-26T20:47:31.617Z,7.30
2019-02-26T20:51:36.665Z,7.30
2019-02-26T20:55:41.340Z,7.20
2019-02-26T20:59:46.025Z,7.10
2019-02-26T21:03:52.513Z,7.00
2019-02-26T21:07:58.769Z,7.00
2019-02-26T21:12:03.223Z,6.90
2019-02-26T21:16:07.804Z,6.80
2019-02-26T21:20:13.680Z,6.70
2019-02-26T21:24:18.140Z,6.70
2019-02-26T21:28:22.534Z,6.60
2019-02-26T21:32:30.176Z,6.60
2019-02-26T21:36:34.990Z,6.50
2019-02-26T21:40:39.391Z,6.40
2019-02-26T21:44:44.499Z,6.30
2019-02-26T21:48:49.506Z,6.30
2019-02-26T21:53:00.334Z,6.20
2019-02-26T21:57:05.416Z,6.20
2019-02-26T22:01:11.704Z,6.10
2019-02-26T22:05:16.497Z,6.00
2019-02-26T22:09:29.936Z,5.90
2019-02-26T22:13:34.000Z,5.90
2019-02-26T22:17:38.797Z,5.80
2019-02-26T22:21:52.178Z,5.70
2019-02-26T22:25:58.931Z,5.60
2019-02-26T22:30:03.299Z,5.60
2019-02-26T22:34:07.668Z,5.50
2019-02-26T22:38:15.072Z,5.50
2019-02-26T22:42:18.043Z,5.40
2019-02-26T22:46:25.281Z,5.30
2019-02-26T22:50:30.058Z,5.20
2019-02-26T22:54:35.022Z,5.20
2019-02-26T22:58:39.484Z,5.10
2019-02-26T23:02:43.725Z,5.10
2019-02-26T23:06:48.131Z,5.00
2019-02-26T23:10:57.180Z,4.90
2019-02-26T23:14:58.642Z,4.90
2019-02-26T23:19:03.834Z,4.70
2019-02-26T23:23:08.818Z,4.60
2019-02-26T23:27:15.121Z,4.50
2019-02-26T23:31:21.809Z,4.40
2019-02-26T23:35:26.213Z,4.40
2019-02-26T23:39:30.884Z,4.30
2019-02-26T23:43:35.230Z,4.30
2019-02-26T23:47:39.621Z,4.20
2019-02-26T23:51:44.036Z,4.20
2019-02-26T23:55:48.529Z,4.20
2019-02-26T23:59:52.872Z,4.20
